sensor_id;sensor_type;location;lat;lon;timestamp;P1;durP1;ratioP1;P2;durP2;ratioP2
36185;SDS011;22228;53.222;7.446;2024-03-08T00:01:13;58.23;;;37.93;;
36185;SDS011;22228;53.222;7.446;2024-03-08T00:04:36;58.73;;;38.80;;
36185;SDS011;22228;53.222;7.446;2024-03-08T00:07:56;57.93;;;38.77;;
36185;SDS011;22228;53.222;7.446;2024-03-08T00:11:18;56.03;;;37.60;;
36185;SDS011;22228;53.222;7.446;2024-03-08T00:14:39;60.10;;;39.17;;
36185;SDS011;22228;53.222;7.446;2024-03-08T00:17:59;56.23;;;39.03;;
36185;SDS011;22228;53.222;7.446;2024-03-08T00:21:24;55.40;;;38.17;;
36185;SDS011;22228;53.222;7.446;2024-03-08T00:24:45;56.47;;;37.03;;
36185;SDS011;22228;53.222;7.446;2024-03-08T00:28:06;53.17;;;35.37;;
36185;SDS011;22228;53.222;7.446;2024-03-08T00:31:26;58.37;;;36.67;;
36185;SDS011;22228;53.222;7.446;2024-03-08T00:34:49;56.97;;;36.27;;
36185;SDS011;22228;53.222;7.446;2024-03-08T00:38:12;55.70;;;37.17;;
36185;SDS011;22228;53.222;7.446;2024-03-08T00:41:33;55.60;;;37.07;;
36185;SDS011;22228;53.222;7.446;2024-03-08T00:44:53;54.60;;;37.63;;
36185;SDS011;22228;53.222;7.446;2024-03-08T00:48:13;54.00;;;36.80;;
36185;SDS011;22228;53.222;7.446;2024-03-08T00:51:34;53.10;;;34.37;;
36185;SDS011;22228;53.222;7.446;2024-03-08T00:54:56;52.23;;;34.70;;
36185;SDS011;22228;53.222;7.446;2024-03-08T00:58:18;48.83;;;35.07;;
36185;SDS011;22228;53.222;7.446;2024-03-08T01:01:39;51.87;;;34.60;;
36185;SDS011;22228;53.222;7.446;2024-03-08T01:04:59;49.90;;;33.67;;
36185;SDS011;22228;53.222;7.446;2024-03-08T01:08:20;51.77;;;33.87;;
36185;SDS011;22228;53.222;7.446;2024-03-08T01:11:42;47.63;;;33.40;;
36185;SDS011;22228;53.222;7.446;2024-03-08T04:01:09;37.70;;;26.47;;
36185;SDS011;22228;53.222;7.446;2024-03-08T04:04:30;39.43;;;25.57;;
36185;SDS011;22228;53.222;7.446;2024-03-08T04:07:51;38.50;;;25.37;;
36185;SDS011;22228;53.222;7.446;2024-03-08T04:11:11;37.40;;;26.23;;
36185;SDS011;22228;53.222;7.446;2024-03-08T04:14:35;37.77;;;25.40;;
36185;SDS011;22228;53.222;7.446;2024-03-08T04:17:53;38.37;;;25.57;;
36185;SDS011;22228;53.222;7.446;2024-03-08T04:21:13;37.40;;;25.53;;
36185;SDS011;22228;53.222;7.446;2024-03-08T04:24:33;38.70;;;26.20;;
36185;SDS011;22228;53.222;7.446;2024-03-08T04:27:54;37.47;;;25.23;;
36185;SDS011;22228;53.222;7.446;2024-03-08T04:31:14;36.97;;;25.47;;
36185;SDS011;22228;53.222;7.446;2024-03-08T04:34:36;38.17;;;26.93;;
36185;SDS011;22228;53.222;7.446;2024-03-08T04:37:56;41.37;;;26.00;;
36185;SDS011;22228;53.222;7.446;2024-03-08T04:41:17;39.10;;;26.53;;
36185;SDS011;22228;53.222;7.446;2024-03-08T04:44:39;36.50;;;26.13;;
36185;SDS011;22228;53.222;7.446;2024-03-08T04:47:59;40.50;;;26.10;;
36185;SDS011;22228;53.222;7.446;2024-03-08T04:51:21;38.47;;;25.50;;
36185;SDS011;22228;53.222;7.446;2024-03-08T04:54:42;41.67;;;27.43;;
36185;SDS011;22228;53.222;7.446;2024-03-08T04:58:03;38.90;;;27.77;;
36185;SDS011;22228;53.222;7.446;2024-03-08T05:01:24;41.00;;;26.33;;
36185;SDS011;22228;53.222;7.446;2024-03-08T05:04:44;40.20;;;27.00;;
36185;SDS011;22228;53.222;7.446;2024-03-08T05:08:06;37.13;;;26.53;;
36185;SDS011;22228;53.222;7.446;2024-03-08T05:11:27;37.67;;;27.17;;
36185;SDS011;22228;53.222;7.446;2024-03-08T05:14:47;38.50;;;26.93;;
36185;SDS011;22228;53.222;7.446;2024-03-08T05:18:08;35.77;;;26.67;;
36185;SDS011;22228;53.222;7.446;2024-03-08T05:21:30;40.47;;;25.83;;
36185;SDS011;22228;53.222;7.446;2024-03-08T05:24:51;41.80;;;26.47;;
36185;SDS011;22228;53.222;7.446;2024-03-08T05:28:12;37.60;;;26.43;;
36185;SDS011;22228;53.222;7.446;2024-03-08T05:31:35;37.60;;;26.57;;
36185;SDS011;22228;53.222;7.446;2024-03-08T05:35:03;41.37;;;27.17;;
36185;SDS011;22228;53.222;7.446;2024-03-08T05:38:26;39.50;;;26.83;;
36185;SDS011;22228;53.222;7.446;2024-03-08T05:41:47;38.53;;;26.30;;
36185;SDS011;22228;53.222;7.446;2024-03-08T05:45:09;39.80;;;26.83;;
36185;SDS011;22228;53.222;7.446;2024-03-08T05:48:29;41.70;;;27.53;;
36185;SDS011;22228;53.222;7.446;2024-03-08T05:51:51;39.47;;;26.47;;
36185;SDS011;22228;53.222;7.446;2024-03-08T05:55:13;40.53;;;26.43;;
36185;SDS011;22228;53.222;7.446;2024-03-08T05:58:35;39.33;;;27.30;;
36185;SDS011;22228;53.222;7.446;2024-03-08T06:01:55;43.33;;;28.00;;
36185;SDS011;22228;53.222;7.446;2024-03-08T06:05:16;42.20;;;27.57;;
36185;SDS011;22228;53.222;7.446;2024-03-08T06:08:36;38.77;;;27.20;;
36185;SDS011;22228;53.222;7.446;2024-03-08T06:11:57;43.17;;;27.57;;
36185;SDS011;22228;53.222;7.446;2024-03-08T06:15:19;42.70;;;28.73;;
36185;SDS011;22228;53.222;7.446;2024-03-08T06:18:39;44.23;;;29.10;;
36185;SDS011;22228;53.222;7.446;2024-03-08T06:21:59;39.47;;;27.77;;
36185;SDS011;22228;53.222;7.446;2024-03-08T06:25:24;43.83;;;29.43;;
36185;SDS011;22228;53.222;7.446;2024-03-08T06:28:44;40.20;;;27.60;;
36185;SDS011;22228;53.222;7.446;2024-03-08T06:32:06;42.93;;;29.20;;
36185;SDS011;22228;53.222;7.446;2024-03-08T06:35:26;36.87;;;27.57;;
36185;SDS011;22228;53.222;7.446;2024-03-08T06:38:48;45.80;;;29.40;;
36185;SDS011;22228;53.222;7.446;2024-03-08T06:42:08;41.53;;;28.77;;
36185;SDS011;22228;53.222;7.446;2024-03-08T06:45:29;47.27;;;30.17;;
36185;SDS011;22228;53.222;7.446;2024-03-08T06:48:50;42.57;;;29.43;;
36185;SDS011;22228;53.222;7.446;2024-03-08T06:52:11;42.37;;;29.17;;
36185;SDS011;22228;53.222;7.446;2024-03-08T06:55:32;42.80;;;30.47;;
36185;SDS011;22228;53.222;7.446;2024-03-08T06:58:52;42.77;;;28.93;;
36185;SDS011;22228;53.222;7.446;2024-03-08T07:02:13;43.90;;;29.47;;
36185;SDS011;22228;53.222;7.446;2024-03-08T07:05:35;41.80;;;28.57;;
36185;SDS011;22228;53.222;7.446;2024-03-08T07:08:56;48.97;;;30.10;;
36185;SDS011;22228;53.222;7.446;2024-03-08T07:12:18;42.63;;;28.80;;
36185;SDS011;22228;53.222;7.446;2024-03-08T07:15:39;47.10;;;30.57;;
36185;SDS011;22228;53.222;7.446;2024-03-08T07:19:00;46.17;;;29.17;;
36185;SDS011;22228;53.222;7.446;2024-03-08T07:22:23;41.20;;;28.90;;
36185;SDS011;22228;53.222;7.446;2024-03-08T07:25:43;43.07;;;28.27;;
36185;SDS011;22228;53.222;7.446;2024-03-08T07:29:04;40.20;;;28.97;;
36185;SDS011;22228;53.222;7.446;2024-03-08T07:32:24;46.37;;;31.03;;
36185;SDS011;22228;53.222;7.446;2024-03-08T07:35:46;43.77;;;29.83;;
36185;SDS011;22228;53.222;7.446;2024-03-08T07:39:10;41.83;;;29.93;;
36185;SDS011;22228;53.222;7.446;2024-03-08T07:42:30;40.20;;;29.77;;
36185;SDS011;22228;53.222;7.446;2024-03-08T07:45:51;45.57;;;29.33;;
36185;SDS011;22228;53.222;7.446;2024-03-08T07:49:13;44.17;;;31.00;;
36185;SDS011;22228;53.222;7.446;2024-03-08T07:52:34;41.17;;;29.80;;
36185;SDS011;22228;53.222;7.446;2024-03-08T07:55:56;40.33;;;29.30;;
36185;SDS011;22228;53.222;7.446;2024-03-08T07:59:16;41.73;;;28.17;;
36185;SDS011;22228;53.222;7.446;2024-03-08T08:02:37;38.07;;;27.37;;
36185;SDS011;22228;53.222;7.446;2024-03-08T08:05:57;38.13;;;28.47;;
36185;SDS011;22228;53.222;7.446;2024-03-08T08:09:18;38.47;;;28.63;;
36185;SDS011;22228;53.222;7.446;2024-03-08T08:12:48;38.40;;;27.23;;
36185;SDS011;22228;53.222;7.446;2024-03-08T08:16:08;36.87;;;25.77;;
36185;SDS011;22228;53.222;7.446;2024-03-08T08:19:31;35.17;;;25.50;;
36185;SDS011;22228;53.222;7.446;2024-03-08T08:22:51;39.80;;;27.60;;
36185;SDS011;22228;53.222;7.446;2024-03-08T08:26:13;39.17;;;25.93;;
36185;SDS011;22228;53.222;7.446;2024-03-08T08:29:35;37.63;;;25.70;;
36185;SDS011;22228;53.222;7.446;2024-03-08T08:32:56;36.23;;;24.37;;
36185;SDS011;22228;53.222;7.446;2024-03-08T08:36:19;37.57;;;25.73;;
36185;SDS011;22228;53.222;7.446;2024-03-08T08:39:39;39.37;;;25.93;;
36185;SDS011;22228;53.222;7.446;2024-03-08T08:43:00;36.07;;;25.93;;
36185;SDS011;22228;53.222;7.446;2024-03-08T08:46:24;40.57;;;27.87;;
36185;SDS011;22228;53.222;7.446;2024-03-08T08:49:45;37.20;;;26.57;;
36185;SDS011;22228;53.222;7.446;2024-03-08T08:53:05;35.33;;;25.53;;
36185;SDS011;22228;53.222;7.446;2024-03-08T08:56:26;40.70;;;26.90;;
36185;SDS011;22228;53.222;7.446;2024-03-08T08:59:48;33.37;;;25.23;;
36185;SDS011;22228;53.222;7.446;2024-03-08T09:03:10;32.00;;;24.47;;
36185;SDS011;22228;53.222;7.446;2024-03-08T09:06:31;35.33;;;24.93;;
36185;SDS011;22228;53.222;7.446;2024-03-08T09:09:51;35.13;;;25.00;;
36185;SDS011;22228;53.222;7.446;2024-03-08T09:13:15;27.93;;;21.93;;
36185;SDS011;22228;53.222;7.446;2024-03-08T09:16:36;30.50;;;23.87;;
36185;SDS011;22228;53.222;7.446;2024-03-08T09:19:58;33.13;;;24.67;;
36185;SDS011;22228;53.222;7.446;2024-03-08T09:23:19;30.10;;;22.53;;
36185;SDS011;22228;53.222;7.446;2024-03-08T09:26:39;30.20;;;22.37;;
36185;SDS011;22228;53.222;7.446;2024-03-08T09:30:01;32.33;;;21.93;;
36185;SDS011;22228;53.222;7.446;2024-03-08T09:33:21;32.73;;;23.57;;
36185;SDS011;22228;53.222;7.446;2024-03-08T09:36:43;30.77;;;22.73;;
36185;SDS011;22228;53.222;7.446;2024-03-08T09:40:04;32.43;;;23.00;;
36185;SDS011;22228;53.222;7.446;2024-03-08T09:43:27;31.03;;;21.70;;
36185;SDS011;22228;53.222;7.446;2024-03-08T09:46:48;31.20;;;23.90;;
36185;SDS011;22228;53.222;7.446;2024-03-08T09:50:11;28.60;;;23.10;;
36185;SDS011;22228;53.222;7.446;2024-03-08T09:53:33;30.03;;;22.70;;
36185;SDS011;22228;53.222;7.446;2024-03-08T09:56:55;31.03;;;22.63;;
36185;SDS011;22228;53.222;7.446;2024-03-08T10:00:16;27.60;;;21.90;;
36185;SDS011;22228;53.222;7.446;2024-03-08T10:03:42;32.93;;;23.40;;
36185;SDS011;22228;53.222;7.446;2024-03-08T10:07:02;29.60;;;23.50;;
36185;SDS011;22228;53.222;7.446;2024-03-08T10:10:24;30.80;;;23.50;;
36185;SDS011;22228;53.222;7.446;2024-03-08T10:13:45;32.53;;;24.47;;
36185;SDS011;22228;53.222;7.446;2024-03-08T10:17:07;30.43;;;23.47;;
36185;SDS011;22228;53.222;7.446;2024-03-08T10:20:28;30.40;;;24.67;;
36185;SDS011;22228;53.222;7.446;2024-03-08T10:23:51;27.87;;;22.90;;
36185;SDS011;22228;53.222;7.446;2024-03-08T10:27:13;31.07;;;23.83;;
36185;SDS011;22228;53.222;7.446;2024-03-08T10:30:36;31.30;;;23.00;;
36185;SDS011;22228;53.222;7.446;2024-03-08T10:33:56;26.73;;;22.03;;
36185;SDS011;22228;53.222;7.446;2024-03-08T10:37:16;28.77;;;23.00;;
36185;SDS011;22228;53.222;7.446;2024-03-08T10:40:42;29.43;;;22.87;;
36185;SDS011;22228;53.222;7.446;2024-03-08T10:44:10;29.50;;;22.87;;
36185;SDS011;22228;53.222;7.446;2024-03-08T10:47:40;29.77;;;22.87;;
36185;SDS011;22228;53.222;7.446;2024-03-08T10:51:01;29.97;;;21.83;;
36185;SDS011;22228;53.222;7.446;2024-03-08T10:54:22;26.80;;;21.23;;
36185;SDS011;22228;53.222;7.446;2024-03-08T10:57:45;30.30;;;23.60;;
36185;SDS011;22228;53.222;7.446;2024-03-08T11:01:07;26.67;;;21.60;;
36185;SDS011;22228;53.222;7.446;2024-03-08T11:04:30;27.57;;;21.97;;
36185;SDS011;22228;53.222;7.446;2024-03-08T11:07:52;26.30;;;21.17;;
36185;SDS011;22228;53.222;7.446;2024-03-08T11:11:25;27.37;;;20.57;;
36185;SDS011;22228;53.222;7.446;2024-03-08T11:14:49;25.47;;;21.50;;
36185;SDS011;22228;53.222;7.446;2024-03-08T11:18:11;28.83;;;21.37;;
36185;SDS011;22228;53.222;7.446;2024-03-08T11:21:33;24.27;;;21.23;;
36185;SDS011;22228;53.222;7.446;2024-03-08T11:24:53;27.57;;;21.60;;
36185;SDS011;22228;53.222;7.446;2024-03-08T11:28:20;24.13;;;20.13;;
36185;SDS011;22228;53.222;7.446;2024-03-08T11:31:43;26.37;;;21.13;;
36185;SDS011;22228;53.222;7.446;2024-03-08T11:35:10;23.50;;;19.27;;
36185;SDS011;22228;53.222;7.446;2024-03-08T11:38:39;25.43;;;19.27;;
36185;SDS011;22228;53.222;7.446;2024-03-08T11:42:01;23.00;;;19.80;;
36185;SDS011;22228;53.222;7.446;2024-03-08T11:45:21;27.90;;;19.93;;
36185;SDS011;22228;53.222;7.446;2024-03-08T11:48:42;22.60;;;19.67;;
36185;SDS011;22228;53.222;7.446;2024-03-08T11:52:05;22.07;;;18.90;;
36185;SDS011;22228;53.222;7.446;2024-03-08T11:55:25;21.90;;;18.60;;
36185;SDS011;22228;53.222;7.446;2024-03-08T11:58:52;22.47;;;18.60;;
36185;SDS011;22228;53.222;7.446;2024-03-08T12:02:15;21.80;;;18.57;;
36185;SDS011;22228;53.222;7.446;2024-03-08T12:05:35;22.60;;;19.27;;
36185;SDS011;22228;53.222;7.446;2024-03-08T12:08:58;22.70;;;18.70;;
36185;SDS011;22228;53.222;7.446;2024-03-08T12:12:18;24.97;;;19.33;;
36185;SDS011;22228;53.222;7.446;2024-03-08T12:15:40;25.47;;;19.50;;
36185;SDS011;22228;53.222;7.446;2024-03-08T12:19:02;22.43;;;18.23;;
36185;SDS011;22228;53.222;7.446;2024-03-08T12:22:24;22.67;;;19.17;;
36185;SDS011;22228;53.222;7.446;2024-03-08T12:25:46;21.70;;;18.93;;
36185;SDS011;22228;53.222;7.446;2024-03-08T12:29:14;21.90;;;18.63;;
36185;SDS011;22228;53.222;7.446;2024-03-08T12:32:36;23.20;;;20.10;;
36185;SDS011;22228;53.222;7.446;2024-03-08T12:35:57;23.00;;;18.63;;
36185;SDS011;22228;53.222;7.446;2024-03-08T12:39:18;21.67;;;18.17;;
36185;SDS011;22228;53.222;7.446;2024-03-08T12:42:42;22.70;;;18.27;;
36185;SDS011;22228;53.222;7.446;2024-03-08T12:46:03;21.33;;;18.27;;
36185;SDS011;22228;53.222;7.446;2024-03-08T12:49:24;22.80;;;18.40;;
36185;SDS011;22228;53.222;7.446;2024-03-08T12:52:45;21.93;;;18.60;;
36185;SDS011;22228;53.222;7.446;2024-03-08T12:56:06;23.43;;;17.67;;
36185;SDS011;22228;53.222;7.446;2024-03-08T12:59:28;23.37;;;18.30;;
36185;SDS011;22228;53.222;7.446;2024-03-08T13:02:49;22.70;;;19.50;;
36185;SDS011;22228;53.222;7.446;2024-03-08T13:06:10;23.43;;;19.50;;
36185;SDS011;22228;53.222;7.446;2024-03-08T13:09:31;22.87;;;18.77;;
36185;SDS011;22228;53.222;7.446;2024-03-08T13:12:57;20.20;;;16.89;;
36185;SDS011;22228;53.222;7.446;2024-03-08T13:16:19;24.50;;;18.77;;
36185;SDS011;22228;53.222;7.446;2024-03-08T13:19:39;22.37;;;18.73;;
36185;SDS011;22228;53.222;7.446;2024-03-08T13:23:01;20.67;;;17.60;;
36185;SDS011;22228;53.222;7.446;2024-03-08T13:26:21;26.33;;;19.70;;
36185;SDS011;22228;53.222;7.446;2024-03-08T13:29:44;24.47;;;19.30;;
36185;SDS011;22228;53.222;7.446;2024-03-08T13:33:07;23.80;;;18.87;;
36185;SDS011;22228;53.222;7.446;2024-03-08T13:36:28;24.07;;;19.93;;
36185;SDS011;22228;53.222;7.446;2024-03-08T13:39:57;22.33;;;19.37;;
36185;SDS011;22228;53.222;7.446;2024-03-08T13:43:18;23.13;;;19.30;;
36185;SDS011;22228;53.222;7.446;2024-03-08T13:46:38;25.43;;;20.17;;
36185;SDS011;22228;53.222;7.446;2024-03-08T13:50:01;23.47;;;18.90;;
36185;SDS011;22228;53.222;7.446;2024-03-08T13:53:22;23.37;;;20.13;;
36185;SDS011;22228;53.222;7.446;2024-03-08T13:56:48;24.84;;;19.62;;
36185;SDS011;22228;53.222;7.446;2024-03-08T14:00:11;23.73;;;20.17;;
36185;SDS011;22228;53.222;7.446;2024-03-08T14:07:02;23.07;;;19.33;;
36185;SDS011;22228;53.222;7.446;2024-03-08T14:10:23;21.80;;;18.47;;
36185;SDS011;22228;53.222;7.446;2024-03-08T14:13:45;20.10;;;17.80;;
36185;SDS011;22228;53.222;7.446;2024-03-08T14:17:10;23.27;;;19.63;;
36185;SDS011;22228;53.222;7.446;2024-03-08T14:20:35;23.20;;;18.33;;
36185;SDS011;22228;53.222;7.446;2024-03-08T14:23:57;23.97;;;19.20;;
36185;SDS011;22228;53.222;7.446;2024-03-08T14:27:18;25.73;;;17.53;;
36185;SDS011;22228;53.222;7.446;2024-03-08T14:30:38;21.90;;;18.43;;
36185;SDS011;22228;53.222;7.446;2024-03-08T14:33:59;22.47;;;17.23;;
36185;SDS011;22228;53.222;7.446;2024-03-08T14:37:21;20.30;;;17.53;;
36185;SDS011;22228;53.222;7.446;2024-03-08T14:40:48;19.97;;;17.77;;
36185;SDS011;22228;53.222;7.446;2024-03-08T14:44:08;22.37;;;17.33;;
36185;SDS011;22228;53.222;7.446;2024-03-08T14:47:29;20.50;;;17.53;;
36185;SDS011;22228;53.222;7.446;2024-03-08T14:50:49;19.83;;;16.17;;
36185;SDS011;22228;53.222;7.446;2024-03-08T14:54:11;20.87;;;16.87;;
36185;SDS011;22228;53.222;7.446;2024-03-08T14:57:33;22.53;;;17.47;;
36185;SDS011;22228;53.222;7.446;2024-03-08T15:00:57;18.97;;;16.87;;
36185;SDS011;22228;53.222;7.446;2024-03-08T15:04:19;21.90;;;16.90;;
36185;SDS011;22228;53.222;7.446;2024-03-08T15:07:40;18.50;;;16.53;;
36185;SDS011;22228;53.222;7.446;2024-03-08T15:11:01;20.90;;;16.83;;
36185;SDS011;22228;53.222;7.446;2024-03-08T15:14:23;18.40;;;15.77;;
36185;SDS011;22228;53.222;7.446;2024-03-08T15:17:43;22.20;;;16.53;;
36185;SDS011;22228;53.222;7.446;2024-03-08T15:21:06;20.90;;;17.13;;
36185;SDS011;22228;53.222;7.446;2024-03-08T15:24:27;19.37;;;16.63;;
36185;SDS011;22228;53.222;7.446;2024-03-08T15:27:47;20.83;;;17.60;;
36185;SDS011;22228;53.222;7.446;2024-03-08T15:31:09;21.17;;;16.90;;
36185;SDS011;22228;53.222;7.446;2024-03-08T15:34:30;18.60;;;16.13;;
36185;SDS011;22228;53.222;7.446;2024-03-08T15:37:56;21.53;;;17.37;;
36185;SDS011;22228;53.222;7.446;2024-03-08T15:41:17;21.53;;;17.53;;
36185;SDS011;22228;53.222;7.446;2024-03-08T15:44:39;22.40;;;17.73;;
36185;SDS011;22228;53.222;7.446;2024-03-08T15:48:02;25.60;;;18.90;;
36185;SDS011;22228;53.222;7.446;2024-03-08T15:51:24;22.10;;;18.90;;
36185;SDS011;22228;53.222;7.446;2024-03-08T15:54:44;22.77;;;18.97;;
36185;SDS011;22228;53.222;7.446;2024-03-08T15:58:05;21.90;;;17.73;;
36185;SDS011;22228;53.222;7.446;2024-03-08T16:01:25;21.90;;;18.97;;
36185;SDS011;22228;53.222;7.446;2024-03-08T16:04:48;21.73;;;18.67;;
36185;SDS011;22228;53.222;7.446;2024-03-08T16:08:09;20.20;;;17.97;;
36185;SDS011;22228;53.222;7.446;2024-03-08T16:11:37;21.03;;;18.40;;
36185;SDS011;22228;53.222;7.446;2024-03-08T16:15:00;23.77;;;21.27;;
36185;SDS011;22228;53.222;7.446;2024-03-08T16:18:24;21.70;;;18.93;;
36185;SDS011;22228;53.222;7.446;2024-03-08T16:21:46;21.40;;;18.73;;
36185;SDS011;22228;53.222;7.446;2024-03-08T16:25:08;19.80;;;17.67;;
36185;SDS011;22228;53.222;7.446;2024-03-08T16:28:31;20.70;;;18.30;;
36185;SDS011;22228;53.222;7.446;2024-03-08T16:31:57;23.53;;;18.73;;
36185;SDS011;22228;53.222;7.446;2024-03-08T16:35:20;22.13;;;18.30;;
36185;SDS011;22228;53.222;7.446;2024-03-08T16:38:47;22.93;;;18.43;;
36185;SDS011;22228;53.222;7.446;2024-03-08T16:42:07;23.40;;;18.90;;
36185;SDS011;22228;53.222;7.446;2024-03-08T16:45:29;24.57;;;19.43;;
36185;SDS011;22228;53.222;7.446;2024-03-08T16:48:49;22.00;;;18.40;;
36185;SDS011;22228;53.222;7.446;2024-03-08T16:52:10;24.57;;;18.97;;
36185;SDS011;22228;53.222;7.446;2024-03-08T16:55:32;24.73;;;19.77;;
36185;SDS011;22228;53.222;7.446;2024-03-08T16:58:53;21.77;;;18.67;;
36185;SDS011;22228;53.222;7.446;2024-03-08T17:02:14;22.50;;;19.50;;
36185;SDS011;22228;53.222;7.446;2024-03-08T17:05:34;23.87;;;19.83;;
36185;SDS011;22228;53.222;7.446;2024-03-08T17:08:56;21.90;;;18.23;;
36185;SDS011;22228;53.222;7.446;2024-03-08T17:12:19;24.53;;;20.30;;
36185;SDS011;22228;53.222;7.446;2024-03-08T17:15:40;25.93;;;20.77;;
36185;SDS011;22228;53.222;7.446;2024-03-08T17:19:05;26.17;;;21.17;;
36185;SDS011;22228;53.222;7.446;2024-03-08T17:22:26;25.03;;;20.80;;
36185;SDS011;22228;53.222;7.446;2024-03-08T17:25:48;26.23;;;21.60;;
36185;SDS011;22228;53.222;7.446;2024-03-08T17:29:10;25.70;;;21.63;;
36185;SDS011;22228;53.222;7.446;2024-03-08T17:32:30;24.70;;;21.03;;
36185;SDS011;22228;53.222;7.446;2024-03-08T17:35:52;30.10;;;20.83;;
36185;SDS011;22228;53.222;7.446;2024-03-08T17:39:13;24.57;;;19.37;;
36185;SDS011;22228;53.222;7.446;2024-03-08T17:42:38;25.80;;;20.60;;
36185;SDS011;22228;53.222;7.446;2024-03-08T17:46:02;23.13;;;19.13;;
36185;SDS011;22228;53.222;7.446;2024-03-08T17:49:29;23.63;;;17.53;;
36185;SDS011;22228;53.222;7.446;2024-03-08T17:52:52;21.13;;;17.70;;
36185;SDS011;22228;53.222;7.446;2024-03-08T17:56:15;26.07;;;18.97;;
36185;SDS011;22228;53.222;7.446;2024-03-08T17:59:35;23.93;;;19.87;;
36185;SDS011;22228;53.222;7.446;2024-03-08T18:02:58;25.40;;;19.67;;
36185;SDS011;22228;53.222;7.446;2024-03-08T18:06:24;25.87;;;19.97;;
36185;SDS011;22228;53.222;7.446;2024-03-08T18:09:47;25.20;;;18.77;;
36185;SDS011;22228;53.222;7.446;2024-03-08T18:13:12;25.73;;;20.57;;
36185;SDS011;22228;53.222;7.446;2024-03-08T18:16:34;24.90;;;19.77;;
36185;SDS011;22228;53.222;7.446;2024-03-08T18:19:59;26.13;;;19.77;;
36185;SDS011;22228;53.222;7.446;2024-03-08T18:23:22;23.60;;;19.47;;
36185;SDS011;22228;53.222;7.446;2024-03-08T18:26:43;23.47;;;19.03;;
36185;SDS011;22228;53.222;7.446;2024-03-08T18:30:04;27.23;;;20.40;;
36185;SDS011;22228;53.222;7.446;2024-03-08T18:33:26;26.40;;;18.70;;
36185;SDS011;22228;53.222;7.446;2024-03-08T18:36:52;24.53;;;18.60;;
36185;SDS011;22228;53.222;7.446;2024-03-08T18:40:13;25.40;;;18.37;;
36185;SDS011;22228;53.222;7.446;2024-03-08T18:43:34;26.77;;;19.43;;
36185;SDS011;22228;53.222;7.446;2024-03-08T18:46:55;24.73;;;19.63;;
36185;SDS011;22228;53.222;7.446;2024-03-08T18:50:16;28.17;;;20.07;;
36185;SDS011;22228;53.222;7.446;2024-03-08T18:53:40;24.77;;;18.77;;
36185;SDS011;22228;53.222;7.446;2024-03-08T18:57:04;27.30;;;19.63;;
36185;SDS011;22228;53.222;7.446;2024-03-08T19:00:24;23.93;;;19.57;;
36185;SDS011;22228;53.222;7.446;2024-03-08T19:03:48;25.50;;;19.40;;
36185;SDS011;22228;53.222;7.446;2024-03-08T19:07:09;23.40;;;18.83;;
36185;SDS011;22228;53.222;7.446;2024-03-08T19:10:31;27.37;;;19.43;;
36185;SDS011;22228;53.222;7.446;2024-03-08T19:13:53;24.07;;;18.67;;
36185;SDS011;22228;53.222;7.446;2024-03-08T19:17:15;25.23;;;19.63;;
36185;SDS011;22228;53.222;7.446;2024-03-08T19:20:35;29.03;;;20.83;;
36185;SDS011;22228;53.222;7.446;2024-03-08T19:23:56;25.43;;;19.87;;
36185;SDS011;22228;53.222;7.446;2024-03-08T19:27:21;26.53;;;20.43;;
36185;SDS011;22228;53.222;7.446;2024-03-08T19:30:46;28.80;;;20.53;;
36185;SDS011;22228;53.222;7.446;2024-03-08T19:34:14;28.87;;;21.77;;
36185;SDS011;22228;53.222;7.446;2024-03-08T19:37:35;28.57;;;20.73;;
36185;SDS011;22228;53.222;7.446;2024-03-08T19:40:57;27.83;;;20.80;;
36185;SDS011;22228;53.222;7.446;2024-03-08T19:44:19;27.63;;;20.57;;
36185;SDS011;22228;53.222;7.446;2024-03-08T19:47:40;28.67;;;21.43;;
36185;SDS011;22228;53.222;7.446;2024-03-08T19:51:02;27.03;;;20.53;;
36185;SDS011;22228;53.222;7.446;2024-03-08T19:54:24;29.10;;;20.83;;
36185;SDS011;22228;53.222;7.446;2024-03-08T19:57:45;25.90;;;20.40;;
36185;SDS011;22228;53.222;7.446;2024-03-08T20:01:07;26.37;;;19.37;;
36185;SDS011;22228;53.222;7.446;2024-03-08T20:04:28;30.23;;;21.57;;
36185;SDS011;22228;53.222;7.446;2024-03-08T20:07:49;29.37;;;21.33;;
36185;SDS011;22228;53.222;7.446;2024-03-08T20:11:11;28.87;;;21.33;;
36185;SDS011;22228;53.222;7.446;2024-03-08T20:14:33;31.27;;;24.90;;
36185;SDS011;22228;53.222;7.446;2024-03-08T20:17:59;27.83;;;22.40;;
36185;SDS011;22228;53.222;7.446;2024-03-08T20:21:32;28.30;;;22.60;;
36185;SDS011;22228;53.222;7.446;2024-03-08T20:24:52;30.10;;;22.87;;
36185;SDS011;22228;53.222;7.446;2024-03-08T20:28:13;28.67;;;22.33;;
36185;SDS011;22228;53.222;7.446;2024-03-08T20:31:37;27.43;;;20.77;;
36185;SDS011;22228;53.222;7.446;2024-03-08T20:35:00;28.80;;;22.50;;
36185;SDS011;22228;53.222;7.446;2024-03-08T20:38:22;29.97;;;21.90;;
36185;SDS011;22228;53.222;7.446;2024-03-08T20:41:45;26.67;;;20.77;;
36185;SDS011;22228;53.222;7.446;2024-03-08T20:45:06;29.27;;;21.63;;
36185;SDS011;22228;53.222;7.446;2024-03-08T20:48:26;37.20;;;25.20;;
36185;SDS011;22228;53.222;7.446;2024-03-08T20:51:51;34.47;;;23.43;;
36185;SDS011;22228;53.222;7.446;2024-03-08T20:55:15;25.87;;;21.03;;
36185;SDS011;22228;53.222;7.446;2024-03-08T20:58:40;30.83;;;21.47;;
36185;SDS011;22228;53.222;7.446;2024-03-08T21:02:02;26.10;;;20.87;;
36185;SDS011;22228;53.222;7.446;2024-03-08T21:05:25;25.93;;;20.90;;
36185;SDS011;22228;53.222;7.446;2024-03-08T21:08:50;27.23;;;20.97;;
36185;SDS011;22228;53.222;7.446;2024-03-08T21:12:10;29.97;;;21.93;;
36185;SDS011;22228;53.222;7.446;2024-03-08T21:15:39;30.27;;;20.57;;
36185;SDS011;22228;53.222;7.446;2024-03-08T21:19:04;27.97;;;20.27;;
36185;SDS011;22228;53.222;7.446;2024-03-08T21:22:25;30.10;;;20.47;;
36185;SDS011;22228;53.222;7.446;2024-03-08T21:25:47;28.50;;;19.40;;
36185;SDS011;22228;53.222;7.446;2024-03-08T21:29:12;29.13;;;19.53;;
36185;SDS011;22228;53.222;7.446;2024-03-08T21:32:35;31.27;;;19.13;;
36185;SDS011;22228;53.222;7.446;2024-03-08T21:35:59;32.00;;;20.80;;
36185;SDS011;22228;53.222;7.446;2024-03-08T21:39:20;29.67;;;20.67;;
36185;SDS011;22228;53.222;7.446;2024-03-08T21:42:48;31.83;;;20.20;;
36185;SDS011;22228;53.222;7.446;2024-03-08T21:46:09;27.90;;;20.47;;
36185;SDS011;22228;53.222;7.446;2024-03-08T21:49:35;29.57;;;20.97;;
36185;SDS011;22228;53.222;7.446;2024-03-08T21:53:03;29.37;;;20.60;;
36185;SDS011;22228;53.222;7.446;2024-03-08T21:56:31;29.37;;;22.30;;
36185;SDS011;22228;53.222;7.446;2024-03-08T21:59:53;27.13;;;20.23;;
36185;SDS011;22228;53.222;7.446;2024-03-08T22:03:14;29.63;;;21.90;;
36185;SDS011;22228;53.222;7.446;2024-03-08T22:06:35;27.77;;;20.30;;
36185;SDS011;22228;53.222;7.446;2024-03-08T22:09:55;30.07;;;21.10;;
36185;SDS011;22228;53.222;7.446;2024-03-08T22:13:18;31.50;;;22.10;;
36185;SDS011;22228;53.222;7.446;2024-03-08T22:16:40;27.50;;;21.07;;
36185;SDS011;22228;53.222;7.446;2024-03-08T22:20:01;31.73;;;21.47;;
36185;SDS011;22228;53.222;7.446;2024-03-08T22:23:30;30.53;;;21.13;;
36185;SDS011;22228;53.222;7.446;2024-03-08T22:26:51;32.20;;;21.90;;
36185;SDS011;22228;53.222;7.446;2024-03-08T22:30:12;29.90;;;21.13;;